Time;durP1;ratioP1;P1;durP2;ratioP2;P2;SDS_P1;SDS_P2;PMS_P1;PMS_P2;Temp;Humidity;BMP_temperature;BMP_pressure;BME280_temperature;BME280_humidity;BME280_pressure;Samples;Min_cycle;Max_cycle;Signal;HPM_P1;HPM_P2
2023/08/12 00:02:44;;;;;;;9.85;6.70;;;;;;;;;;8353769;23;20072;-86
2023/08/12 00:06:47;;;;;;;10.45;7.03;;;;;;;;;;8328715;28;20141;-88
2023/08/12 00:10:50;;;;;;;11.68;8.23;;;;;;;;;;8320319;28;20041;-86
2023/08/12 00:14:55;;;;;;;10.27;7.88;;;;;;;;;;8326385;28;20455;-87
2023/08/12 00:18:58;;;;;;;13.65;7.97;;;;;;;;;;8321342;28;20474;-86
2023/08/12 00:23:01;;;;;;;10.27;7.25;;;;;;;;;;8322857;28;20041;-86
2023/08/12 00:27:04;;;;;;;18.67;7.95;;;;;;;;;;8316412;28;20045;-87
2023/08/12 00:31:08;;;;;;;12.13;8.18;;;;;;;;;;8323889;28;20045;-86
2023/08/12 00:35:11;;;;;;;10.25;6.95;;;;;;;;;;8325051;28;20045;-86
2023/08/12 00:39:15;;;;;;;8.98;6.32;;;;;;;;;;8330905;28;20056;-86
2023/08/12 00:43:18;;;;;;;12.48;6.80;;;;;;;;;;8320697;28;20379;-87
2023/08/12 00:47:23;;;;;;;14.40;7.93;;;;;;;;;;8294230;28;20045;-87
2023/08/12 00:51:27;;;;;;;14.07;8.57;;;;;;;;;;8296278;28;20075;-88
2023/08/12 00:55:30;;;;;;;11.65;8.48;;;;;;;;;;8305084;28;20066;-87
2023/08/12 00:59:36;;;;;;;15.02;8.77;;;;;;;;;;8295708;28;20136;-88
2023/08/12 01:03:44;;;;;;;10.45;7.18;;;;;;;;;;8305775;28;20073;-86
2023/08/12 01:07:48;;;;;;;11.30;7.50;;;;;;;;;;8292792;28;20065;-87
2023/08/12 01:12:07;;;;;;;16.38;9.38;;;;;;;;;;8290728;28;20712;-87
2023/08/12 01:16:13;;;;;;;16.15;10.20;;;;;;;;;;8291483;28;20054;-86
2023/08/12 01:20:24;;;;;;;15.65;9.05;;;;;;;;;;8290148;28;20483;-85
2023/08/12 01:24:36;;;;;;;13.00;8.27;;;;;;;;;;8302833;28;20115;-87
2023/08/12 01:28:39;;;;;;;15.53;9.17;;;;;;;;;;8317270;28;20046;-87
2023/08/12 01:32:46;;;;;;;14.43;8.57;;;;;;;;;;8301685;28;20046;-88
2023/08/12 01:36:59;;;;;;;12.07;8.68;;;;;;;;;;8329001;28;20657;-86
2023/08/12 01:41:04;;;;;;;14.80;8.82;;;;;;;;;;8296466;28;20053;-86
2023/08/12 01:45:08;;;;;;;17.27;11.20;;;;;;;;;;8307177;28;20505;-88
2023/08/12 01:49:12;;;;;;;14.60;9.90;;;;;;;;;;8315853;28;20057;-89
2023/08/12 01:53:15;;;;;;;16.08;9.52;;;;;;;;;;8308904;28;20586;-87
2023/08/12 01:57:22;;;;;;;14.65;9.80;;;;;;;;;;8304963;28;20560;-88
2023/08/12 02:01:25;;;;;;;14.38;10.10;;;;;;;;;;8315281;28;20088;-86
2023/08/12 02:05:28;;;;;;;16.27;9.57;;;;;;;;;;8305974;28;20077;-87
2023/08/12 02:09:32;;;;;;;13.48;9.38;;;;;;;;;;8304891;28;20187;-87
2023/08/12 02:13:39;;;;;;;18.63;8.25;;;;;;;;;;8315655;28;20107;-87
2023/08/12 02:17:42;;;;;;;14.73;9.13;;;;;;;;;;8307827;28;20149;-88
2023/08/12 02:21:46;;;;;;;14.57;9.40;;;;;;;;;;8314076;28;20060;-88
2023/08/12 02:25:49;;;;;;;19.33;9.40;;;;;;;;;;8311035;28;20053;-87
2023/08/12 02:29:54;;;;;;;12.43;8.02;;;;;;;;;;8442261;23;20482;-88
2023/08/12 02:33:57;;;;;;;10.18;7.75;;;;;;;;;;8264690;28;20054;-87
2023/08/12 02:38:00;;;;;;;10.50;6.90;;;;;;;;;;8261096;28;20061;-88
2023/08/12 02:42:04;;;;;;;8.02;5.78;;;;;;;;;;8262274;28;20050;-88
2023/08/12 02:46:10;;;;;;;12.45;7.35;;;;;;;;;;8252681;28;20078;-87
2023/08/12 02:50:13;;;;;;;10.23;6.88;;;;;;;;;;8251463;28;20464;-88
2023/08/12 02:54:16;;;;;;;10.88;7.20;;;;;;;;;;8257523;28;20443;-87
2023/08/12 02:58:20;;;;;;;10.77;8.10;;;;;;;;;;8242208;28;20059;-88
2023/08/12 03:02:26;;;;;;;10.93;7.57;;;;;;;;;;8236798;28;20118;-87
2023/08/12 03:06:29;;;;;;;13.25;7.95;;;;;;;;;;8264888;28;20062;-87
2023/08/12 03:10:34;;;;;;;13.27;8.18;;;;;;;;;;8248980;28;20471;-88
2023/08/12 03:14:37;;;;;;;14.95;8.07;;;;;;;;;;8279241;28;20085;-88
2023/08/12 03:18:46;;;;;;;12.18;8.05;;;;;;;;;;8269592;23;20419;-87
2023/08/12 03:22:48;;;;;;;15.43;8.95;;;;;;;;;;8254189;28;20050;-87
2023/08/12 03:26:51;;;;;;;9.68;8.15;;;;;;;;;;8294483;28;20034;-88
2023/08/12 03:30:54;;;;;;;10.45;8.43;;;;;;;;;;8264922;28;20047;-86
2023/08/12 03:34:59;;;;;;;13.63;8.55;;;;;;;;;;8271508;28;20106;-88
2023/08/12 03:39:01;;;;;;;9.43;7.15;;;;;;;;;;8262835;28;20078;-87
2023/08/12 03:43:05;;;;;;;12.75;7.47;;;;;;;;;;8267649;28;20054;-87
2023/08/12 03:47:08;;;;;;;11.13;7.47;;;;;;;;;;8258317;28;20086;-88
2023/08/12 03:51:15;;;;;;;10.38;7.97;;;;;;;;;;8226819;28;20050;-88
2023/08/12 03:55:19;;;;;;;9.65;6.72;;;;;;;;;;8238862;28;20101;-86
2023/08/12 03:59:22;;;;;;;8.65;6.65;;;;;;;;;;8226043;28;20498;-87
2023/08/12 04:03:26;;;;;;;15.48;12.32;;;;;;;;;;8212636;28;20086;-88
2023/08/12 04:07:33;;;;;;;10.43;6.80;;;;;;;;;;8226407;28;20071;-86
2023/08/12 04:11:36;;;;;;;14.88;7.05;;;;;;;;;;8216735;28;20055;-87
2023/08/12 04:15:39;;;;;;;11.70;7.20;;;;;;;;;;8223020;28;20074;-87
2023/08/12 04:19:42;;;;;;;11.18;6.40;;;;;;;;;;8214808;28;20051;-87
2023/08/12 04:23:47;;;;;;;7.18;5.80;;;;;;;;;;8224364;28;20518;-87
2023/08/12 04:27:51;;;;;;;8.80;6.25;;;;;;;;;;8221906;28;20195;-88
2023/08/12 04:31:54;;;;;;;9.88;6.38;;;;;;;;;;8200437;28;20990;-88
2023/08/12 04:35:58;;;;;;;9.02;6.00;;;;;;;;;;8230094;28;20414;-87
2023/08/12 04:40:07;;;;;;;7.68;5.75;;;;;;;;;;8222087;28;20488;-88
2023/08/12 04:44:11;;;;;;;8.55;5.75;;;;;;;;;;8217923;28;20054;-87
2023/08/12 04:48:15;;;;;;;9.68;5.40;;;;;;;;;;8212917;28;20059;-87
2023/08/12 04:52:20;;;;;;;9.27;4.95;;;;;;;;;;8204812;28;20055;-87
2023/08/12 04:56:28;;;;;;;8.30;5.28;;;;;;;;;;8233020;28;20126;-86
2023/08/12 05:00:32;;;;;;;46.20;32.05;;;;;;;;;;8238631;28;20438;-88
2023/08/12 05:04:36;;;;;;;18.63;13.70;;;;;;;;;;8205904;28;20066;-88
2023/08/12 05:08:39;;;;;;;8.40;5.55;;;;;;;;;;8252189;28;20557;-87
2023/08/12 05:12:47;;;;;;;5.70;3.47;;;;;;;;;;8227925;28;20050;-89
2023/08/12 05:16:50;;;;;;;5.35;3.60;;;;;;;;;;8231588;28;20059;-88
2023/08/12 05:20:54;;;;;;;6.72;3.33;;;;;;;;;;8460994;23;20111;-89
2023/08/12 05:24:57;;;;;;;6.00;3.10;;;;;;;;;;8328973;28;20615;-86
2023/08/12 05:29:01;;;;;;;4.85;2.97;;;;;;;;;;8398073;23;20541;-87
2023/08/12 05:33:05;;;;;;;7.55;3.15;;;;;;;;;;8307331;28;20562;-86
2023/08/12 05:37:08;;;;;;;5.55;2.95;;;;;;;;;;8309262;28;20073;-87
2023/08/12 05:41:11;;;;;;;5.38;2.80;;;;;;;;;;8309566;28;20125;-88
2023/08/12 05:45:16;;;;;;;4.38;2.45;;;;;;;;;;8305033;28;20069;-88
2023/08/12 05:49:19;;;;;;;4.70;2.97;;;;;;;;;;8317814;28;20053;-88
2023/08/12 05:53:23;;;;;;;6.03;2.60;;;;;;;;;;8298631;28;20095;-88
2023/08/12 05:57:26;;;;;;;3.45;2.13;;;;;;;;;;8291391;28;20095;-87
2023/08/12 06:01:30;;;;;;;3.45;2.15;;;;;;;;;;8290037;28;20052;-86
2023/08/12 06:05:33;;;;;;;4.43;2.25;;;;;;;;;;8289410;28;20046;-88
2023/08/12 06:09:36;;;;;;;4.13;2.70;;;;;;;;;;8301147;28;20105;-88
2023/08/12 06:13:40;;;;;;;4.25;2.00;;;;;;;;;;8299942;28;20042;-88
2023/08/12 06:17:44;;;;;;;5.55;2.42;;;;;;;;;;8278330;28;20057;-89
2023/08/12 06:21:46;;;;;;;3.28;1.85;;;;;;;;;;8299427;28;20072;-86
2023/08/12 06:25:49;;;;;;;3.08;2.03;;;;;;;;;;8301636;28;20476;-91
2023/08/12 06:29:52;;;;;;;7.45;1.83;;;;;;;;;;8298087;28;20512;-87
2023/08/12 06:33:56;;;;;;;3.88;1.88;;;;;;;;;;8286632;28;20100;-89
2023/08/12 06:37:59;;;;;;;4.03;2.10;;;;;;;;;;8298807;28;20072;-88
2023/08/12 06:42:03;;;;;;;4.95;1.63;;;;;;;;;;8299303;28;20490;-89
2023/08/12 06:46:16;;;;;;;3.75;2.20;;;;;;;;;;8300348;28;20643;-90
2023/08/12 06:50:20;;;;;;;3.83;2.03;;;;;;;;;;8298502;28;20046;-89
2023/08/12 06:54:24;;;;;;;4.93;1.98;;;;;;;;;;8322023;28;20121;-92
2023/08/12 06:58:27;;;;;;;4.38;1.92;;;;;;;;;;8299033;28;20056;-90
2023/08/12 07:02:31;;;;;;;5.03;1.65;;;;;;;;;;8294412;28;20141;-91
2023/08/12 07:06:35;;;;;;;3.65;2.08;;;;;;;;;;8276253;28;20058;-90
2023/08/12 07:10:39;;;;;;;3.55;1.90;;;;;;;;;;8287342;28;20384;-91
2023/08/12 07:14:42;;;;;;;4.00;1.75;;;;;;;;;;8280804;28;20050;-90
2023/08/12 07:18:45;;;;;;;3.63;2.15;;;;;;;;;;8294232;28;20058;-87
2023/08/12 07:22:51;;;;;;;3.63;1.92;;;;;;;;;;8289604;28;20046;-90
2023/08/12 07:26:54;;;;;;;7.45;2.60;;;;;;;;;;8297469;28;20129;-89
2023/08/12 07:31:02;;;;;;;4.03;1.77;;;;;;;;;;8287851;28;20042;-85
2023/08/12 07:35:06;;;;;;;4.50;2.10;;;;;;;;;;8292782;28;20121;-89
2023/08/12 07:39:11;;;;;;;6.15;2.00;;;;;;;;;;8274887;28;20120;-88
2023/08/12 07:43:14;;;;;;;4.13;1.85;;;;;;;;;;8283242;28;20065;-85
2023/08/12 07:47:17;;;;;;;4.40;2.00;;;;;;;;;;8288654;28;20050;-88
2023/08/12 07:51:20;;;;;;;4.55;2.03;;;;;;;;;;8282566;28;20054;-87
2023/08/12 07:55:24;;;;;;;4.28;1.90;;;;;;;;;;8280385;28;20073;-88
2023/08/12 07:59:31;;;;;;;3.65;2.10;;;;;;;;;;8281541;28;20479;-85
2023/08/12 08:03:41;;;;;;;4.93;2.03;;;;;;;;;;8289201;28;20498;-88
2023/08/12 08:07:44;;;;;;;3.80;1.90;;;;;;;;;;8287829;28;20052;-84
2023/08/12 08:11:48;;;;;;;5.82;2.10;;;;;;;;;;8285538;28;20590;-84
2023/08/12 08:15:51;;;;;;;3.35;2.03;;;;;;;;;;8282822;28;20045;-84
2023/08/12 08:19:54;;;;;;;5.22;2.22;;;;;;;;;;8295174;28;20043;-90
2023/08/12 08:23:57;;;;;;;4.88;2.10;;;;;;;;;;8296416;28;20056;-85
2023/08/12 08:28:01;;;;;;;5.50;2.78;;;;;;;;;;8295381;28;20144;-87
2023/08/12 08:32:04;;;;;;;6.47;2.92;;;;;;;;;;8295891;28;20050;-87
2023/08/12 08:36:07;;;;;;;4.95;2.17;;;;;;;;;;8299237;28;20488;-84
2023/08/12 08:40:11;;;;;;;8.48;2.42;;;;;;;;;;8302735;28;20050;-87
2023/08/12 08:44:17;;;;;;;3.42;1.90;;;;;;;;;;8303212;28;20463;-84
2023/08/12 08:48:24;;;;;;;4.00;2.00;;;;;;;;;;8299902;28;20493;-87
2023/08/12 08:52:29;;;;;;;3.55;2.00;;;;;;;;;;8286092;28;20053;-88
2023/08/12 08:56:33;;;;;;;5.40;2.38;;;;;;;;;;8293817;28;20160;-85
2023/08/12 09:00:38;;;;;;;4.50;2.30;;;;;;;;;;8290651;28;20096;-86
2023/08/12 09:04:41;;;;;;;4.85;2.47;;;;;;;;;;8309364;28;20049;-85
2023/08/12 09:08:48;;;;;;;3.13;2.05;;;;;;;;;;8290473;28;20050;-90
2023/08/12 09:12:52;;;;;;;4.57;2.10;;;;;;;;;;8304184;28;20125;-88
2023/08/12 09:48:13;;;;;;;4.75;2.33;;;;;;;;;;8294631;28;20265;-92
2023/08/12 10:49:40;;;;;;;6.50;3.00;;;;;;;;;;8686069;23;20518;-90
2023/08/12 11:32:08;;;;;;;3.97;2.53;;;;;;;;;;8161417;29;20178;-91
2023/08/12 11:36:15;;;;;;;5.15;2.70;;;;;;;;;;8247049;28;20058;-90
2023/08/12 11:40:19;;;;;;;3.92;2.45;;;;;;;;;;8249269;28;20121;-91
2023/08/12 11:44:23;;;;;;;4.32;2.70;;;;;;;;;;8256799;28;20062;-90
2023/08/12 11:48:28;;;;;;;5.07;2.63;;;;;;;;;;8254590;28;20062;-91
2023/08/12 11:52:35;;;;;;;3.92;2.40;;;;;;;;;;8254417;28;20078;-91
2023/08/12 11:56:40;;;;;;;4.45;2.58;;;;;;;;;;8246677;28;20050;-91
2023/08/12 12:00:51;;;;;;;5.60;2.45;;;;;;;;;;8254259;28;20133;-92
2023/08/12 12:04:55;;;;;;;3.88;2.50;;;;;;;;;;8257547;28;20042;-91
2023/08/12 12:09:04;;;;;;;4.70;2.50;;;;;;;;;;8254497;28;20135;-91
2023/08/12 12:13:10;;;;;;;4.22;2.60;;;;;;;;;;8266131;28;20166;-91
2023/08/12 12:17:15;;;;;;;3.95;2.80;;;;;;;;;;8251197;28;20042;-91
2023/08/12 12:21:22;;;;;;;5.47;2.72;;;;;;;;;;8260514;28;20046;-90
2023/08/12 12:25:30;;;;;;;4.10;2.72;;;;;;;;;;8255863;28;20061;-91
2023/08/12 12:29:33;;;;;;;5.28;2.72;;;;;;;;;;8255253;28;20057;-91
2023/08/12 12:38:28;;;;;;;3.85;2.63;;;;;;;;;;8456881;23;20049;-91
2023/08/12 12:42:33;;;;;;;4.25;2.65;;;;;;;;;;8267554;28;20141;-91
2023/08/12 12:46:37;;;;;;;4.40;2.72;;;;;;;;;;8412205;23;20062;-90
2023/08/12 12:50:54;;;;;;;4.68;2.92;;;;;;;;;;8263929;28;20134;-91
2023/08/12 12:54:58;;;;;;;3.97;2.60;;;;;;;;;;8285050;28;20092;-91
2023/08/12 13:03:13;;;;;;;4.18;2.50;;;;;;;;;;8680769;23;20077;-91
2023/08/12 13:07:16;;;;;;;4.82;2.50;;;;;;;;;;8273878;28;20490;-91
2023/08/12 13:11:20;;;;;;;5.47;2.55;;;;;;;;;;8267874;28;20050;-92
2023/08/12 13:15:25;;;;;;;3.40;2.30;;;;;;;;;;8260810;28;20143;-92
2023/08/12 13:19:32;;;;;;;3.70;2.50;;;;;;;;;;8259801;28;20069;-92
2023/08/12 13:23:35;;;;;;;3.55;2.47;;;;;;;;;;8258011;28;20659;-92
2023/08/12 13:27:39;;;;;;;5.53;2.63;;;;;;;;;;8337629;23;20101;-93
2023/08/12 13:31:43;;;;;;;4.95;2.33;;;;;;;;;;8265893;28;20429;-91
2023/08/12 13:35:48;;;;;;;5.72;2.80;;;;;;;;;;8297945;28;20077;-91
2023/08/12 13:39:55;;;;;;;4.38;2.58;;;;;;;;;;8384545;23;20061;-91
2023/08/12 13:48:16;;;;;;;5.10;2.58;;;;;;;;;;8260261;28;20062;-93
2023/08/12 13:52:20;;;;;;;4.80;2.22;;;;;;;;;;8269595;28;20129;-92
2023/08/12 13:56:24;;;;;;;3.30;2.38;;;;;;;;;;8261222;28;20049;-91
2023/08/12 14:00:27;;;;;;;4.90;2.20;;;;;;;;;;8250267;28;20046;-91
2023/08/12 14:04:30;;;;;;;5.63;2.40;;;;;;;;;;8238255;28;20055;-91
2023/08/12 14:13:59;;;;;;;5.55;2.38;;;;;;;;;;8310777;23;20072;-91
2023/08/12 14:18:03;;;;;;;3.53;2.30;;;;;;;;;;8297447;28;20042;-89
2023/08/12 14:22:06;;;;;;;5.82;2.47;;;;;;;;;;8299460;28;20054;-89
2023/08/12 14:26:09;;;;;;;4.88;2.42;;;;;;;;;;8287580;28;20121;-91
2023/08/12 14:30:15;;;;;;;7.80;2.67;;;;;;;;;;8297522;28;20053;-90
2023/08/12 14:34:20;;;;;;;3.45;2.17;;;;;;;;;;8292752;28;20042;-92
2023/08/12 14:38:23;;;;;;;5.07;2.50;;;;;;;;;;8279731;28;20561;-91
2023/08/12 14:42:26;;;;;;;4.38;2.70;;;;;;;;;;8289709;23;20053;-91
2023/08/12 14:46:31;;;;;;;7.20;2.67;;;;;;;;;;8300321;28;20137;-90
2023/08/12 14:50:36;;;;;;;4.22;2.40;;;;;;;;;;8273435;28;20127;-89
2023/08/12 14:55:03;;;;;;;4.55;2.33;;;;;;;;;;8265839;28;20505;-90
2023/08/12 14:59:21;;;;;;;4.28;2.65;;;;;;;;;;8282316;28;20057;-89
2023/08/12 15:03:25;;;;;;;5.78;2.38;;;;;;;;;;8280028;28;20549;-89
2023/08/12 15:07:42;;;;;;;4.70;2.80;;;;;;;;;;8294402;28;20117;-90
2023/08/12 15:12:11;;;;;;;6.50;2.70;;;;;;;;;;8665526;23;20056;-94
2023/08/12 15:21:33;;;;;;;5.78;3.47;;;;;;;;;;8416399;23;20053;-92
2023/08/12 15:25:36;;;;;;;9.43;3.00;;;;;;;;;;8292173;28;20097;-93
2023/08/12 15:29:40;;;;;;;9.13;3.10;;;;;;;;;;8281140;28;20053;-93
2023/08/12 15:33:43;;;;;;;5.35;3.05;;;;;;;;;;8276958;28;20509;-91
2023/08/12 15:37:47;;;;;;;5.13;2.88;;;;;;;;;;8295665;28;20050;-92
2023/08/12 15:41:50;;;;;;;7.15;2.78;;;;;;;;;;8275821;28;20050;-89
2023/08/12 15:45:57;;;;;;;6.22;2.90;;;;;;;;;;8286128;28;20414;-93
2023/08/12 15:50:00;;;;;;;5.93;3.25;;;;;;;;;;8298176;28;20120;-91
2023/08/12 15:54:05;;;;;;;9.63;3.38;;;;;;;;;;8285826;28;20077;-90
2023/08/12 15:58:09;;;;;;;5.32;2.78;;;;;;;;;;8294872;28;20117;-91
2023/08/12 16:02:16;;;;;;;5.32;2.90;;;;;;;;;;8294011;28;20049;-88
2023/08/12 16:11:15;;;;;;;5.10;2.70;;;;;;;;;;8343254;23;20053;-88
2023/08/12 16:15:18;;;;;;;5.53;3.00;;;;;;;;;;8315796;28;20113;-88
2023/08/12 16:19:21;;;;;;;10.27;2.95;;;;;;;;;;8293606;28;20148;-89
2023/08/12 16:23:24;;;;;;;5.40;2.92;;;;;;;;;;8297181;28;20042;-88
2023/08/12 16:27:28;;;;;;;6.90;3.60;;;;;;;;;;8284678;28;20053;-89
2023/08/12 16:31:32;;;;;;;6.65;3.20;;;;;;;;;;8291451;28;20471;-91
2023/08/12 16:35:36;;;;;;;6.90;3.40;;;;;;;;;;8297409;28;20050;-89
2023/08/12 16:39:39;;;;;;;6.22;3.22;;;;;;;;;;8293662;28;20069;-90
2023/08/12 16:43:43;;;;;;;5.00;3.13;;;;;;;;;;8293205;28;20092;-90
2023/08/12 16:47:46;;;;;;;7.38;3.35;;;;;;;;;;8289729;28;20128;-89
2023/08/12 16:51:49;;;;;;;6.18;3.40;;;;;;;;;;8296141;28;20406;-90
2023/08/12 16:55:52;;;;;;;6.68;3.35;;;;;;;;;;8287917;28;20042;-90
2023/08/12 17:00:02;;;;;;;9.50;3.38;;;;;;;;;;8287321;28;20056;-90
2023/08/12 17:04:11;;;;;;;8.23;3.55;;;;;;;;;;8281277;28;20104;-90
2023/08/12 17:08:14;;;;;;;8.70;3.30;;;;;;;;;;8292029;28;20482;-90
2023/08/12 17:12:18;;;;;;;5.50;3.53;;;;;;;;;;8277231;28;20426;-90
2023/08/12 17:16:25;;;;;;;7.43;3.47;;;;;;;;;;8297775;28;20053;-89
2023/08/12 17:20:29;;;;;;;9.88;4.07;;;;;;;;;;8277130;28;20100;-89
2023/08/12 17:24:32;;;;;;;10.13;4.60;;;;;;;;;;8274497;28;20081;-89
2023/08/12 17:28:36;;;;;;;5.38;3.83;;;;;;;;;;8264630;28;20137;-90
2023/08/12 17:32:43;;;;;;;7.97;4.38;;;;;;;;;;8274163;28;20060;-90
2023/08/12 17:36:47;;;;;;;11.18;4.95;;;;;;;;;;8280944;28;20053;-90
2023/08/12 17:40:50;;;;;;;6.78;4.78;;;;;;;;;;8373421;23;20144;-89
2023/08/12 17:44:54;;;;;;;9.82;5.55;;;;;;;;;;8296894;28;20133;-89
2023/08/12 17:48:59;;;;;;;11.98;5.43;;;;;;;;;;8298153;28;20080;-89
2023/08/12 17:53:02;;;;;;;10.10;6.38;;;;;;;;;;8288571;28;20050;-89
2023/08/12 17:57:05;;;;;;;11.55;6.85;;;;;;;;;;8285339;28;20077;-89
2023/08/12 18:01:09;;;;;;;13.95;6.57;;;;;;;;;;8286847;28;20056;-90
2023/08/12 18:05:16;;;;;;;12.98;7.20;;;;;;;;;;8287764;28;20081;-90
2023/08/12 18:09:22;;;;;;;15.10;9.38;;;;;;;;;;8290992;28;20085;-90
2023/08/12 18:13:25;;;;;;;13.23;7.88;;;;;;;;;;8296589;28;20050;-90
2023/08/12 18:17:29;;;;;;;16.05;8.60;;;;;;;;;;8294741;28;20069;-92
2023/08/12 18:21:36;;;;;;;19.63;10.85;;;;;;;;;;8285571;28;20054;-91
2023/08/12 18:25:40;;;;;;;21.40;8.15;;;;;;;;;;8261332;28;20054;-92
2023/08/12 18:29:53;;;;;;;11.43;8.00;;;;;;;;;;8255991;28;20061;-92
2023/08/12 18:33:58;;;;;;;70.32;25.27;;;;;;;;;;8282666;28;20069;-89
2023/08/12 20:21:14;;;;;;;12.68;10.20;;;;;;;;;;8142838;29;20096;-90
2023/08/12 20:25:18;;;;;;;18.48;9.57;;;;;;;;;;8152163;29;20118;-90
2023/08/12 20:29:23;;;;;;;16.27;9.70;;;;;;;;;;8179735;28;20069;-89
2023/08/12 20:33:29;;;;;;;14.20;9.75;;;;;;;;;;8205010;29;20502;-90
2023/08/12 20:37:38;;;;;;;15.77;10.30;;;;;;;;;;8191082;29;20252;-90
2023/08/12 20:41:43;;;;;;;16.00;10.93;;;;;;;;;;8221955;28;20046;-90
2023/08/12 20:45:48;;;;;;;15.90;10.73;;;;;;;;;;8217889;28;20125;-92
2023/08/12 20:49:53;;;;;;;18.75;12.00;;;;;;;;;;8204615;28;20054;-89
2023/08/12 20:54:00;;;;;;;17.73;12.15;;;;;;;;;;8219717;28;20054;-91
2023/08/12 20:58:05;;;;;;;20.85;11.55;;;;;;;;;;8213231;28;20054;-93
2023/08/12 21:02:09;;;;;;;23.15;15.75;;;;;;;;;;8220094;28;20495;-90
2023/08/12 21:06:12;;;;;;;17.15;11.23;;;;;;;;;;8213493;28;20110;-92
2023/08/12 21:10:19;;;;;;;15.73;11.27;;;;;;;;;;8217155;28;20050;-90
2023/08/12 21:14:24;;;;;;;20.27;10.85;;;;;;;;;;8203740;28;20058;-89
2023/08/12 21:18:27;;;;;;;15.98;10.55;;;;;;;;;;8207491;28;20055;-89
2023/08/12 21:22:31;;;;;;;14.77;10.80;;;;;;;;;;8197598;29;20089;-90
2023/08/12 21:26:36;;;;;;;16.10;11.13;;;;;;;;;;8205236;28;20062;-90
2023/08/12 21:30:40;;;;;;;13.00;10.50;;;;;;;;;;8203771;28;20090;-89
2023/08/12 21:34:43;;;;;;;17.55;11.48;;;;;;;;;;8218485;28;20054;-89
2023/08/12 21:38:46;;;;;;;16.75;11.60;;;;;;;;;;8217229;28;20054;-90
2023/08/12 21:42:51;;;;;;;17.38;11.70;;;;;;;;;;8218210;28;20055;-90
2023/08/12 21:46:55;;;;;;;14.00;11.13;;;;;;;;;;8215106;28;20106;-89
2023/08/12 21:50:58;;;;;;;19.77;11.55;;;;;;;;;;8218790;28;20459;-90
2023/08/12 21:55:02;;;;;;;17.00;12.70;;;;;;;;;;8212118;28;20133;-89
2023/08/12 21:59:07;;;;;;;15.95;11.85;;;;;;;;;;8215847;28;20395;-90
2023/08/12 22:03:10;;;;;;;19.50;13.10;;;;;;;;;;8206982;28;20118;-89
2023/08/12 22:07:13;;;;;;;18.63;13.38;;;;;;;;;;8213919;28;20578;-89
2023/08/12 22:11:17;;;;;;;16.63;12.90;;;;;;;;;;8209388;28;20480;-89
2023/08/12 22:15:25;;;;;;;18.98;13.80;;;;;;;;;;8219169;28;20464;-89
2023/08/12 22:19:28;;;;;;;17.35;12.88;;;;;;;;;;8220130;28;20054;-89
2023/08/12 22:23:34;;;;;;;18.40;12.85;;;;;;;;;;8206916;28;20093;-89
2023/08/12 22:27:38;;;;;;;18.00;12.02;;;;;;;;;;8223863;28;20098;-92
2023/08/12 22:31:43;;;;;;;17.27;11.75;;;;;;;;;;8235192;28;20464;-88
2023/08/12 22:35:46;;;;;;;18.67;12.52;;;;;;;;;;8218947;28;20604;-91
2023/08/12 22:39:50;;;;;;;16.02;11.27;;;;;;;;;;8214234;28;20061;-94
2023/08/12 22:43:53;;;;;;;17.15;10.88;;;;;;;;;;8213137;28;20066;-89
2023/08/12 22:47:59;;;;;;;19.55;12.48;;;;;;;;;;8209897;28;20078;-88
2023/08/12 22:52:02;;;;;;;16.38;13.20;;;;;;;;;;8218385;28;20082;-88
2023/08/12 22:56:06;;;;;;;20.33;14.68;;;;;;;;;;8205348;28;20419;-91
2023/08/12 23:00:13;;;;;;;19.38;14.52;;;;;;;;;;8196005;28;20057;-90
2023/08/12 23:04:21;;;;;;;20.80;14.73;;;;;;;;;;8206763;28;20051;-89
2023/08/12 23:08:24;;;;;;;19.95;14.68;;;;;;;;;;8200473;28;20059;-90
2023/08/12 23:12:29;;;;;;;19.20;13.70;;;;;;;;;;8201876;28;20059;-89
2023/08/12 23:16:35;;;;;;;17.58;13.07;;;;;;;;;;8348664;23;20058;-92
2023/08/12 23:20:41;;;;;;;17.45;12.15;;;;;;;;;;8276258;28;20050;-89
2023/08/12 23:24:45;;;;;;;16.40;11.45;;;;;;;;;;8274472;28;20042;-89
2023/08/12 23:28:51;;;;;;;16.73;12.43;;;;;;;;;;8298766;28;20144;-89
2023/08/12 23:32:54;;;;;;;19.00;12.40;;;;;;;;;;8279092;28;20185;-93
2023/08/12 23:37:02;;;;;;;18.17;12.85;;;;;;;;;;8270419;28;20450;-90
